Главная страница
METAR-TAF:

METAR-TAF

Аэропорты :

Hemavan, Швеция

широта: 65-48-22N, долгота: 015-04-58E, высота над уровнем моря: 458 м

Текущие метеонаблюдения

Эта сводка был подготовлена 21 минут назад, в 19:20 UTC
Ветер 5 Узел от юго-юго-восточный
Температура -12°C
Влажность 85%
Давление 992 hPa
Видимость 10 км и более

METAR: ESUT 281920Z AUTO 16005KT 9999 NCD M12/M14 Q0992

Время: 20:41 (19:41 UTC)


TAF: отсутствует

Метеонаблюдения и прогнозы для более 4000 аэропортов (сводки METAR и TAF).

Имеющиеся станции представлены на карте желтыми и красными точками.

Чтобы увидеть название станции, наведите на нее мышь.

Затем щелкните, чтобы увидеть метеонаблюдения и метеопрогнозы.

Управление картой: чтобы увеличить масштаб, щелкните зеленые кнопки с черным крестиком; чтобы уменьшить масштаб, щелкните зеленую кнопку с тире; для просмотра соседних карт щелкайте зеленые стрелки.


METAR-TAF: